OEDF/DMM METAR and TAF weather

Enter ICAO airport designator
Station Type Date Time Source
OEDF METAR 2019/06/19 00:00 UTC NOAA

OEDF 190000Z 30009KT CAVOK 32/07 Q0999 NOSIG


Station Type Date Time Source
OEDF Decoded METAR 2019/06/19 00:00 UTC NOAA

Dammam-King Fahd International Airport, Saudi Arabia (OEDF) 26-28N 049-47E
Jun 18, 2019 - 08:00 PM EDT / 2019.06.19 0000 UTC
Wind: from the WNW (300 degrees) at 10 MPH (9 KT):0
Visibility: greater than 7 mile(s):0
Temperature: 89 F (32 C)
Dew Point: 44 F (7 C)
Relative Humidity: 21%
Pressure (altimeter): 29.50 in. Hg (0999 hPa)
ob: OEDF 190000Z 30009KT CAVOK 32/07 Q0999 NOSIG
cycle: 0

Station Type Date Time Source
OEDF TAF 2019/06/18 18:03 UTC NOAA

TAF TAF OEDF 181404Z 1818/1924 32010KT CAVOK
BECMG 1902/1904 35015G25KT
TEMPO 1905/1911 5000 BLDU

Example: see airport list